La Belle Poule — FBPU — position and weather

sailwx.info

Track history (hours):
 
Tides and Currents Weather Stations Pressure Air Temp Water Temp Dewpoint Dewpoint Depression Visibility Wind Speed Wind Dir Waves Ship Positions

La Belle Poule (France)

Ship's website: http://www.defense.gouv.fr/english/portail-defense

Last reported at 2016-Oct-21 13:33 UTC. Time now 2017-Mar-25 03:53 UTC.
Position N 48°22' W 004°30'.
Warning: this ship's position is months out of date.

Length 38 m; draft 3.6 m.

Type: Sailing vessel. MMSI: 228796000.

Date/timePositionNaut miles runAvg speedWind from/ knotsBaromVisibWave heightAir tempDewpointWater temp
2016-Oct-21 13:33N 48°22' W 004°30'2 0.6
2016-Oct-21 09:33N 48°20' W 004°30'1 0.9
2016-Oct-21 08:27N 48°21' W 004°29'1 0.1
2016-Oct-20 13:33N 48°22' W 004°29'0 0.4
2016-Oct-20 12:33N 48°21' W 004°30'2 2.1
2016-Oct-20 11:32N 48°20' W 004°27'0 0.1
2016-Oct-20 10:32N 48°20' W 004°27'0 0.4
2016-Oct-20 09:33N 48°20' W 004°28'2 1.6
2016-Oct-20 08:33N 48°21' W 004°30'2 0.9
2016-Oct-20 06:33N 48°23' W 004°30'3 0.2
2016-Oct-19 12:34N 48°20' W 004°28'3 0.2
2016-Oct-18 14:33N 48°23' W 004°30'0 0.0
2016-Oct-18 13:33N 48°23' W 004°30'0 0.0
2016-Oct-18 10:33N 48°23' W 004°30'0 0.0
2016-Oct-18 09:33N 48°23' W 004°30'0 0.0
2016-Oct-18 07:33N 48°23' W 004°30'0 0.0
2016-Oct-18 06:33N 48°23' W 004°30'0 0.0
2016-Oct-17 13:30N 48°23' W 004°30'0 0.0
2016-Oct-17 12:30N 48°23' W 004°30'0 0.0
2016-Oct-17 11:30N 48°23' W 004°30'  
2016-Oct-15 06:33N 48°17' W 004°30'0 0.0
2016-Oct-15 04:33N 48°17' W 004°30'0 0.0
2016-Oct-14 23:33N 48°17' W 004°30'0 0.0
2016-Oct-14 18:33N 48°17' W 004°30'0 0.0
2016-Oct-14 17:33N 48°17' W 004°30'0 0.0
2016-Oct-14 16:33N 48°17' W 004°30'4 4.5
2016-Oct-14 15:33N 48°18' W 004°23'4 3.8
2016-Oct-14 14:33N 48°18' W 004°17'3 3.5
2016-Oct-14 13:33N 48°18' W 004°23'2 0.8
2016-Oct-14 11:33N 48°17' W 004°25'4 3.8
2016-Oct-14 10:34N 48°20' W 004°28'3 2.6
2016-Oct-14 09:33N 48°23' W 004°30'0 0.0
2016-Oct-14 07:09N 48°23' W 004°30'0 0.0
2016-Oct-14 02:33N 48°23' W 004°30'0 0.0
2016-Oct-13 22:33N 48°23' W 004°30'0 0.0
2016-Oct-13 21:33N 48°23' W 004°30'0 0.0
2016-Oct-13 20:33N 48°23' W 004°30'0 0.0
2016-Oct-13 17:33N 48°23' W 004°30'0 0.0
2016-Oct-13 16:33N 48°23' W 004°30'0 0.0
2016-Oct-13 13:33N 48°23' W 004°30'6 5.7
2016-Oct-13 12:33N 48°18' W 004°25'1 0.1
2016-Oct-13 06:33N 48°17' W 004°25'6 2.1
2016-Oct-13 03:27N 48°23' W 004°30'0 0.0
2016-Oct-13 01:27N 48°23' W 004°30'0 0.0
2016-Oct-13 00:33N 48°23' W 004°30'0 0.0
2016-Oct-12 22:33N 48°23' W 004°30'0 0.0
2016-Oct-12 21:33N 48°23' W 004°30'0 0.0
2016-Oct-12 19:33N 48°23' W 004°30'0 0.0
2016-Oct-12 18:30N 48°23' W 004°30'0 0.0
2016-Oct-12 17:33N 48°23' W 004°30'0 0.0
2016-Oct-12 13:21N 48°23' W 004°30'0 0.0
2016-Oct-12 10:33N 48°23' W 004°30'0 0.0
2016-Oct-12 07:33N 48°23' W 004°30'0 0.0
2016-Oct-12 03:33N 48°23' W 004°30'0 0.0
2016-Oct-12 01:30N 48°23' W 004°30'0 0.0
2016-Oct-11 20:33N 48°23' W 004°30'0 0.0
2016-Oct-11 19:33N 48°23' W 004°30'0 0.0
2016-Oct-11 17:30N 48°23' W 004°30'0 0.0
2016-Oct-11 14:30N 48°23' W 004°30'  
Track history (hours):
 
Tides and Currents Weather Stations Pressure Air Temp Water Temp Dewpoint Dewpoint Depression Visibility Wind Speed Wind Dir Waves Ship Positions

La Belle Poule (France)

Ship's website: http://www.defense.gouv.fr/english/portail-defense

Last reported at 2016-Oct-21 13:33 UTC. Time now 2017-Mar-25 03:53 UTC.
Position N 48°22' W 004°30'.
Warning: this ship's position is months out of date.

Length 38 m; draft 3.6 m.

Type: Sailing vessel. MMSI: 228796000.

Date/timePositionNaut miles runAvg speedWind from/ knotsBaromVisibWave heightAir tempDewpointWater temp
2016-Oct-21 13:33N 48°22' W 004°30'2 0.6
2016-Oct-21 09:33N 48°20' W 004°30'1 0.9
2016-Oct-21 08:27N 48°21' W 004°29'1 0.1
2016-Oct-20 13:33N 48°22' W 004°29'0 0.4
2016-Oct-20 12:33N 48°21' W 004°30'2 2.1
2016-Oct-20 11:32N 48°20' W 004°27'0 0.1
2016-Oct-20 10:32N 48°20' W 004°27'0 0.4
2016-Oct-20 09:33N 48°20' W 004°28'2 1.6
2016-Oct-20 08:33N 48°21' W 004°30'2 0.9
2016-Oct-20 06:33N 48°23' W 004°30'3 0.2
2016-Oct-19 12:34N 48°20' W 004°28'3 0.2
2016-Oct-18 14:33N 48°23' W 004°30'0 0.0
2016-Oct-18 13:33N 48°23' W 004°30'0 0.0
2016-Oct-18 10:33N 48°23' W 004°30'0 0.0
2016-Oct-18 09:33N 48°23' W 004°30'0 0.0
2016-Oct-18 07:33N 48°23' W 004°30'0 0.0
2016-Oct-18 06:33N 48°23' W 004°30'0 0.0
2016-Oct-17 13:30N 48°23' W 004°30'0 0.0
2016-Oct-17 12:30N 48°23' W 004°30'0 0.0
2016-Oct-17 11:30N 48°23' W 004°30'  
2016-Oct-15 06:33N 48°17' W 004°30'0 0.0
2016-Oct-15 04:33N 48°17' W 004°30'0 0.0
2016-Oct-14 23:33N 48°17' W 004°30'0 0.0
2016-Oct-14 18:33N 48°17' W 004°30'0 0.0
2016-Oct-14 17:33N 48°17' W 004°30'0 0.0
2016-Oct-14 16:33N 48°17' W 004°30'4 4.5
2016-Oct-14 15:33N 48°18' W 004°23'4 3.8
2016-Oct-14 14:33N 48°18' W 004°17'3 3.5
2016-Oct-14 13:33N 48°18' W 004°23'2 0.8
2016-Oct-14 11:33N 48°17' W 004°25'4 3.8
2016-Oct-14 10:34N 48°20' W 004°28'3 2.6
2016-Oct-14 09:33N 48°23' W 004°30'0 0.0
2016-Oct-14 07:09N 48°23' W 004°30'0 0.0
2016-Oct-14 02:33N 48°23' W 004°30'0 0.0
2016-Oct-13 22:33N 48°23' W 004°30'0 0.0
2016-Oct-13 21:33N 48°23' W 004°30'0 0.0
2016-Oct-13 20:33N 48°23' W 004°30'0 0.0
2016-Oct-13 17:33N 48°23' W 004°30'0 0.0
2016-Oct-13 16:33N 48°23' W 004°30'0 0.0
2016-Oct-13 13:33N 48°23' W 004°30'6 5.7
2016-Oct-13 12:33N 48°18' W 004°25'1 0.1
2016-Oct-13 06:33N 48°17' W 004°25'6 2.1
2016-Oct-13 03:27N 48°23' W 004°30'0 0.0
2016-Oct-13 01:27N 48°23' W 004°30'0 0.0
2016-Oct-13 00:33N 48°23' W 004°30'0 0.0
2016-Oct-12 22:33N 48°23' W 004°30'0 0.0
2016-Oct-12 21:33N 48°23' W 004°30'0 0.0
2016-Oct-12 19:33N 48°23' W 004°30'0 0.0
2016-Oct-12 18:30N 48°23' W 004°30'0 0.0
2016-Oct-12 17:33N 48°23' W 004°30'0 0.0
2016-Oct-12 13:21N 48°23' W 004°30'0 0.0
2016-Oct-12 10:33N 48°23' W 004°30'0 0.0
2016-Oct-12 07:33N 48°23' W 004°30'0 0.0
2016-Oct-12 03:33N 48°23' W 004°30'0 0.0
2016-Oct-12 01:30N 48°23' W 004°30'0 0.0
2016-Oct-11 20:33N 48°23' W 004°30'0 0.0
2016-Oct-11 19:33N 48°23' W 004°30'0 0.0
2016-Oct-11 17:30N 48°23' W 004°30'0 0.0
2016-Oct-11 14:30N 48°23' W 004°30'  

Dump ship's entire track history